• Join FlightAware (Why Join?)
  • Login
  • US Flag 
06:56AM EDT


 

Airport Tracker/Info


-or-


 

Live Flight TrackerFlight Track Log ✈ UAL5961 ✈ 01-Jul-2013 ✈ KELP - KIAH

Flight Track Log - Related Links

Times and Time Zones

All times are in EDT time to prevent confusion due to time zone crossing. See the UAL5961 flight status page for this flight to view local times or setup timezone preferences in your user account.

Time Position Orientation Groundspeed Altitude Reporting Facility
EDT Latitude Longitude Course Direction KTS MPH feet Rate Location/Type
08:41AM 31.8236 -106.3675 96° East 170 196 4,500  Level Albuquerque Center
08:42AM 31.8206 -106.3033 93° East 199 229 6,600 1,500 Climbing Albuquerque Center
08:43AM 31.8103 -106.2233 99° East 248 285 7,900 1,320 Climbing Albuquerque Center
08:44AM 31.7635 -106.0164 103° East  Level Estimated
08:44AM 31.7997 -106.1311 98° East 296 341 9,400  Level Albuquerque Center
08:45AM 31.7488 -105.8965 96° East  Level Estimated
08:46AM 31.7289 -105.7691 100° East  Level FlightAware Approximate
08:46AM 31.7853 -106.0178 98° East 301 346 10,700  Level Albuquerque Center
08:47AM 31.7129 -105.6413 96° East  Level FlightAware Approximate
08:47AM 31.7717 -105.9047 98° East 346 398 11,700  Level Albuquerque Center
08:48AM 31.7583 -105.7917 98° East 348 400 13,600 1,500 Climbing Albuquerque Center
08:49AM 31.7442 -105.6794 98° East 347 399 14,800 1,140 Climbing Albuquerque Center
08:50AM 31.7300 -105.5636 98° East 356 410 15,900 1,020 Climbing Albuquerque Center
08:51AM 31.7153 -105.4453 98° East 364 419 16,900 900 Climbing Albuquerque Center
08:52AM 31.7003 -105.3250 98° East 372 428 17,800 900 Climbing Albuquerque Center
08:53AM 31.6864 -105.2053 98° East 370 426 18,800 1,020 Climbing Albuquerque Center
08:54AM 31.6711 -105.0864 99° East 369 425 19,900 1,080 Climbing Albuquerque Center
08:55AM 31.6564 -104.9642 98° East 374 430 21,000 1,020 Climbing Albuquerque Center
08:56AM 31.6400 -104.8400 99° East 381 438 22,000 1,020 Climbing Albuquerque Center
08:57AM 31.6239 -104.7142 99° East 387 445 23,100 1,080 Climbing Albuquerque Center
08:58AM 31.6081 -104.5875 98° East 390 449 24,200 1,020 Climbing Albuquerque Center
08:59AM 31.5911 -104.4611 99° East 392 451 25,200 1,020 Climbing Albuquerque Center
09:00AM 31.5747 -104.3339 99° East 393 452 26,300 1,020 Climbing Albuquerque Center
09:01AM 31.5583 -104.2069 99° East 394 453 27,300 1,140 Climbing Albuquerque Center
09:02AM 31.5381 -104.0544 99° East 394 453 28,600 1,140 Climbing Albuquerque Center
09:03AM 31.5197 -103.9275 100° East 394 453 29,700 1,080 Climbing Albuquerque Center
09:04AM 31.5025 -103.7989 99° East 397 457 30,800 960 Climbing Albuquerque Center
09:05AM 31.4861 -103.6808 99° East 396 456 31,700 960 Climbing Albuquerque Center
09:06AM 31.4669 -103.5542 100° East 396 456 32,800 1,020 Climbing Albuquerque Center
09:07AM 31.4508 -103.4267 98° East 395 455 33,800 1,020 Climbing Albuquerque Center
09:08AM 31.4364 -103.3008 98° East 392 451 34,900 540 Climbing Albuquerque Center
09:09AM 31.4197 -103.1714 99° East 398 458 35,000  Climbing Albuquerque Center
09:10AM 31.4017 -103.0328 99° East 421 484 35,000  Level Albuquerque Center
09:11AM 31.3828 -102.8861 99° East 447 514 35,000  Level Albuquerque Center
09:12AM 31.3606 -102.7131 99° East 451 519 35,000  Level Albuquerque Center
09:13AM 31.3428 -102.5714 98° East 443 510 35,000  Level Albuquerque Center
09:14AM 31.3272 -102.4489 98° East 456 525 35,000  Level Albuquerque Center
09:15AM 31.3056 -102.2803 99° East 445 512 35,000  Level Albuquerque Center
09:16AM 31.2867 -102.1406 99° East 440 506 35,000  Level Albuquerque Center
09:17AM 31.2636 -101.9569 98° East 443 510 35,000  Level Houston Center
09:18AM 31.2439 -101.8161 99° East 442 509 35,000  Level Houston Center
09:19AM 31.2242 -101.6739 99° East 443 510 35,000  Level Houston Center
09:20AM 31.2042 -101.5322 99° East 443 510 35,000  Level Houston Center
09:21AM 31.1847 -101.3911 99° East 442 509 35,000  Level Houston Center
09:22AM 31.1650 -101.2508 99° East 442 509 35,000  Level Houston Center
09:23AM 31.1467 -101.1064 98° East 445 512 35,000  Level Houston Center
09:24AM 31.1219 -100.9336 99° East 449 517 35,000  Level Houston Center
09:25AM 31.1014 -100.7928 100° East 442 509 35,000 -60 Level Houston Center
09:26AM 31.0817 -100.6517 99° East 440 506 34,900 -540 Descending Houston Center
09:27AM 31.0608 -100.5081 100° East 447 514 33,900 -1,020 Descending Houston Center
09:29AM 31.0381 -100.3589 100° East 462 532 32,900 -1,020 Descending Houston Center
09:30AM 31.0167 -100.2081 99° East 468 539 31,900 -960 Descending Houston Center
09:31AM 30.9950 -100.0619 100° East 456 525 31,000 -480 Descending Houston Center
09:32AM 30.9694 -99.8883 100° East 453 521 31,000  Level Houston Center
09:33AM 30.9461 -99.7417 100° East 460 529 31,000  Level Houston Center
09:34AM 30.9314 -99.5919 97° East 464 534 31,000  Level Houston Center
09:35AM 30.9303 -99.4392 90° East 470 541 31,000  Level Houston Center
09:36AM 30.9264 -99.2853 92° East 472 543 31,000  Level Houston Center
09:37AM 30.9222 -99.1114 92° East 475 547 31,000  Level Houston Center
09:38AM 30.9192 -98.9553 91° East 478 550 31,000  Level Houston Center
09:39AM 30.9147 -98.7997 92° East 477 549 31,000  Level Houston Center
09:41AM 30.9053 -98.4864 92° East 479 551 31,000  Level Houston Center
09:42AM 30.9014 -98.3281 92° East 482 555 31,000  Level Houston Center
09:43AM 30.8972 -98.1697 92° East 485 558 31,000  Level Houston Center
09:44AM 30.8922 -97.9858 92° East 485 558 31,000  Level Houston Center
09:45AM 30.8864 -97.8294 92° East 483 556 31,000  Level Houston Center
09:46AM 30.8811 -97.6728 92° East 481 554 31,000  Level Houston Center
09:47AM 30.8753 -97.5164 92° East 482 555 31,000  Level Houston Center
09:48AM 30.8689 -97.3617 93° East 481 554 31,000 -300 Level Houston Center
09:49AM 30.8556 -97.1892 95° East 483 556 30,400 -1,260 Descending Houston Center
09:50AM 30.8103 -97.0308 108° East 491 565 28,500 -1,440 Descending Houston Center
09:51AM 30.7656 -96.8833 109° East 484 557 27,500 -1,200 Descending Houston Center
09:52AM 30.7200 -96.7350 110° East 486 559 26,100 -1,860 Descending Houston Center
09:53AM 30.6728 -96.5844 110° East 492 566 23,700 -2,220 Descending Houston Center
09:54AM 30.6317 -96.4400 108° East 470 541 21,600 -2,100 Descending Houston Center
09:55AM 30.5889 -96.3031 110° East 445 512 19,400 -2,280 Descending Houston Center
09:56AM 30.5489 -96.1692 109° East 436 502 17,000 -2,520 Descending Houston Center
09:57AM 30.5178 -96.0761 111° Southeast 423 487 15,300 -2,520 Descending Houston Center
09:58AM 30.4656 -95.9075 110° East 411 473 12,200 -1,500 Descending Houston Center
09:59AM 30.3981 -95.8089 128° Southeast 357 411 11,700 -660 Descending Houston Center
10:00AM 30.3261 -95.7303 137° Southeast 378 435 10,900 -1,020 Descending Houston Center
10:02AM 30.1850 -95.5847 138° Southeast 301 346 8,800 -1,200 Descending Houston Center
10:04AM 30.1242 -95.5192 137° Southeast 300 345 7,100 -960 Descending Houston Center
10:04AM 30.1067 -95.4372 104° East 245 282 6,900 -540 Descending Houston Center
10:06AM 30.1058 -95.3411 91° East 254 292 6,000 -660 Descending Houston Center
10:06AM 30.1064 -95.2731 89° East 244 281 5,600 -1,920 Descending Houston Center
10:08AM 30.0806 -95.1964 111° Southeast 253 291 2,400 -2,880 Descending Houston Center